sensor_id;sensor_type;location;lat;lon;timestamp;P1;durP1;ratioP1;P2;durP2;ratioP2
19235;SDS011;9752;54.270;12.470;2023-03-01T00:03:23;19.67;;;13.97;;
19235;SDS011;9752;54.270;12.470;2023-03-01T00:08:24;17.67;;;14.23;;
19235;SDS011;9752;54.270;12.470;2023-03-01T00:13:28;19.73;;;16.33;;
19235;SDS011;9752;54.270;12.470;2023-03-01T00:18:29;21.50;;;15.30;;
19235;SDS011;9752;54.270;12.470;2023-03-01T00:23:33;23.30;;;16.27;;
19235;SDS011;9752;54.270;12.470;2023-03-01T00:28:37;22.87;;;16.13;;
19235;SDS011;9752;54.270;12.470;2023-03-01T00:33:38;24.17;;;14.87;;
19235;SDS011;9752;54.270;12.470;2023-03-01T00:38:41;25.33;;;16.40;;
19235;SDS011;9752;54.270;12.470;2023-03-01T00:43:45;21.83;;;14.13;;
19235;SDS011;9752;54.270;12.470;2023-03-01T00:48:47;18.80;;;13.10;;
19235;SDS011;9752;54.270;12.470;2023-03-01T00:53:49;19.07;;;12.57;;
19235;SDS011;9752;54.270;12.470;2023-03-01T00:58:53;24.70;;;15.03;;
19235;SDS011;9752;54.270;12.470;2023-03-01T01:03:56;18.90;;;14.03;;
19235;SDS011;9752;54.270;12.470;2023-03-01T01:08:59;21.60;;;13.33;;
19235;SDS011;9752;54.270;12.470;2023-03-01T01:14:03;17.23;;;12.63;;
19235;SDS011;9752;54.270;12.470;2023-03-01T01:19:05;20.77;;;14.50;;
19235;SDS011;9752;54.270;12.470;2023-03-01T01:24:07;19.23;;;13.70;;
19235;SDS011;9752;54.270;12.470;2023-03-01T01:29:10;16.20;;;12.87;;
19235;SDS011;9752;54.270;12.470;2023-03-01T01:34:13;19.67;;;13.80;;
19235;SDS011;9752;54.270;12.470;2023-03-01T01:39:16;23.23;;;15.07;;
19235;SDS011;9752;54.270;12.470;2023-03-01T01:44:20;22.37;;;15.97;;
19235;SDS011;9752;54.270;12.470;2023-03-01T01:49:25;21.53;;;13.70;;
19235;SDS011;9752;54.270;12.470;2023-03-01T01:54:34;17.17;;;13.43;;
19235;SDS011;9752;54.270;12.470;2023-03-01T01:59:44;18.93;;;15.03;;
19235;SDS011;9752;54.270;12.470;2023-03-01T02:04:52;18.90;;;13.33;;
19235;SDS011;9752;54.270;12.470;2023-03-01T02:10:00;19.57;;;13.63;;
19235;SDS011;9752;54.270;12.470;2023-03-01T02:15:05;17.30;;;13.40;;
19235;SDS011;9752;54.270;12.470;2023-03-01T02:20:09;16.37;;;13.57;;
19235;SDS011;9752;54.270;12.470;2023-03-01T02:30:43;16.40;;;12.67;;
19235;SDS011;9752;54.270;12.470;2023-03-01T02:36:01;18.23;;;13.30;;
19235;SDS011;9752;54.270;12.470;2023-03-01T02:41:07;18.03;;;14.13;;
19235;SDS011;9752;54.270;12.470;2023-03-01T02:46:15;19.57;;;12.33;;
19235;SDS011;9752;54.270;12.470;2023-03-01T02:51:22;18.07;;;13.40;;
19235;SDS011;9752;54.270;12.470;2023-03-01T02:56:32;16.87;;;12.90;;
19235;SDS011;9752;54.270;12.470;2023-03-01T03:01:36;14.90;;;12.47;;
19235;SDS011;9752;54.270;12.470;2023-03-01T03:06:40;17.70;;;13.20;;
19235;SDS011;9752;54.270;12.470;2023-03-01T03:11:42;19.70;;;13.67;;
19235;SDS011;9752;54.270;12.470;2023-03-01T03:16:46;19.97;;;14.20;;
19235;SDS011;9752;54.270;12.470;2023-03-01T03:21:51;20.60;;;15.07;;
19235;SDS011;9752;54.270;12.470;2023-03-01T03:26:53;18.60;;;13.37;;
19235;SDS011;9752;54.270;12.470;2023-03-01T03:31:56;17.90;;;13.53;;
19235;SDS011;9752;54.270;12.470;2023-03-01T03:36:57;14.83;;;11.77;;
19235;SDS011;9752;54.270;12.470;2023-03-01T03:42:07;18.83;;;12.70;;
19235;SDS011;9752;54.270;12.470;2023-03-01T03:47:10;20.50;;;13.07;;
19235;SDS011;9752;54.270;12.470;2023-03-01T03:52:12;17.00;;;13.57;;
19235;SDS011;9752;54.270;12.470;2023-03-01T03:57:15;18.63;;;13.50;;
19235;SDS011;9752;54.270;12.470;2023-03-01T04:02:17;25.53;;;15.27;;
19235;SDS011;9752;54.270;12.470;2023-03-01T04:07:22;19.37;;;14.13;;
19235;SDS011;9752;54.270;12.470;2023-03-01T04:12:25;22.90;;;14.80;;
19235;SDS011;9752;54.270;12.470;2023-03-01T04:17:26;21.00;;;14.33;;
19235;SDS011;9752;54.270;12.470;2023-03-01T04:22:28;22.90;;;14.70;;
19235;SDS011;9752;54.270;12.470;2023-03-01T04:27:34;22.43;;;14.20;;
19235;SDS011;9752;54.270;12.470;2023-03-01T04:32:36;18.10;;;14.47;;
19235;SDS011;9752;54.270;12.470;2023-03-01T04:37:38;17.67;;;14.20;;
19235;SDS011;9752;54.270;12.470;2023-03-01T04:42:43;18.63;;;13.50;;
19235;SDS011;9752;54.270;12.470;2023-03-01T04:47:45;20.27;;;15.53;;
19235;SDS011;9752;54.270;12.470;2023-03-01T04:52:47;21.33;;;16.10;;
19235;SDS011;9752;54.270;12.470;2023-03-01T04:57:50;21.47;;;15.60;;
19235;SDS011;9752;54.270;12.470;2023-03-01T05:02:53;26.60;;;17.13;;
19235;SDS011;9752;54.270;12.470;2023-03-01T05:07:56;22.27;;;15.27;;
19235;SDS011;9752;54.270;12.470;2023-03-01T05:13:00;23.43;;;16.37;;
19235;SDS011;9752;54.270;12.470;2023-03-01T05:18:04;22.73;;;16.10;;
19235;SDS011;9752;54.270;12.470;2023-03-01T05:23:11;23.03;;;17.33;;
19235;SDS011;9752;54.270;12.470;2023-03-01T05:28:14;23.37;;;16.70;;
19235;SDS011;9752;54.270;12.470;2023-03-01T05:33:16;24.20;;;16.57;;
19235;SDS011;9752;54.270;12.470;2023-03-01T05:38:17;27.93;;;19.13;;
19235;SDS011;9752;54.270;12.470;2023-03-01T05:43:21;27.43;;;17.77;;
19235;SDS011;9752;54.270;12.470;2023-03-01T05:48:22;29.80;;;19.87;;
19235;SDS011;9752;54.270;12.470;2023-03-01T05:53:24;29.00;;;19.07;;
19235;SDS011;9752;54.270;12.470;2023-03-01T05:58:28;27.10;;;18.27;;
19235;SDS011;9752;54.270;12.470;2023-03-01T06:03:29;25.37;;;18.03;;
19235;SDS011;9752;54.270;12.470;2023-03-01T06:08:31;28.20;;;18.37;;
19235;SDS011;9752;54.270;12.470;2023-03-01T06:13:34;25.37;;;16.70;;
19235;SDS011;9752;54.270;12.470;2023-03-01T06:18:36;30.33;;;17.60;;
19235;SDS011;9752;54.270;12.470;2023-03-01T06:23:38;24.30;;;16.67;;
19235;SDS011;9752;54.270;12.470;2023-03-01T06:28:41;30.00;;;19.67;;
19235;SDS011;9752;54.270;12.470;2023-03-01T06:33:46;35.60;;;22.53;;
19235;SDS011;9752;54.270;12.470;2023-03-01T06:38:47;36.57;;;22.63;;
19235;SDS011;9752;54.270;12.470;2023-03-01T06:43:50;35.03;;;21.30;;
19235;SDS011;9752;54.270;12.470;2023-03-01T06:48:52;32.73;;;21.57;;
19235;SDS011;9752;54.270;12.470;2023-03-01T06:53:54;33.57;;;21.27;;
19235;SDS011;9752;54.270;12.470;2023-03-01T06:58:57;34.77;;;21.70;;
19235;SDS011;9752;54.270;12.470;2023-03-01T07:03:58;36.10;;;22.47;;
19235;SDS011;9752;54.270;12.470;2023-03-01T07:09:00;39.20;;;23.57;;
19235;SDS011;9752;54.270;12.470;2023-03-01T07:14:03;35.90;;;22.87;;
19235;SDS011;9752;54.270;12.470;2023-03-01T07:19:06;39.70;;;24.50;;
19235;SDS011;9752;54.270;12.470;2023-03-01T07:24:08;51.20;;;29.20;;
19235;SDS011;9752;54.270;12.470;2023-03-01T07:29:12;56.07;;;30.90;;
19235;SDS011;9752;54.270;12.470;2023-03-01T07:34:14;65.10;;;35.07;;
19235;SDS011;9752;54.270;12.470;2023-03-01T07:39:15;85.20;;;41.30;;
19235;SDS011;9752;54.270;12.470;2023-03-01T07:44:18;72.63;;;35.47;;
19235;SDS011;9752;54.270;12.470;2023-03-01T07:49:20;85.30;;;41.10;;
19235;SDS011;9752;54.270;12.470;2023-03-01T07:54:22;104.23;;;43.47;;
19235;SDS011;9752;54.270;12.470;2023-03-01T07:59:25;137.53;;;51.37;;
19235;SDS011;9752;54.270;12.470;2023-03-01T08:04:29;516.83;;;111.03;;
19235;SDS011;9752;54.270;12.470;2023-03-01T08:09:30;177.43;;;46.77;;
19235;SDS011;9752;54.270;12.470;2023-03-01T08:14:34;274.50;;;63.20;;
19235;SDS011;9752;54.270;12.470;2023-03-01T08:19:35;413.53;;;83.80;;
19235;SDS011;9752;54.270;12.470;2023-03-01T08:24:37;443.50;;;97.90;;
19235;SDS011;9752;54.270;12.470;2023-03-01T08:29:40;155.43;;;49.57;;
19235;SDS011;9752;54.270;12.470;2023-03-01T08:34:42;207.77;;;57.03;;
19235;SDS011;9752;54.270;12.470;2023-03-01T08:39:43;655.53;;;135.57;;
19235;SDS011;9752;54.270;12.470;2023-03-01T08:44:46;388.73;;;89.10;;
19235;SDS011;9752;54.270;12.470;2023-03-01T08:49:48;396.97;;;84.03;;
19235;SDS011;9752;54.270;12.470;2023-03-01T08:54:51;334.17;;;84.77;;
19235;SDS011;9752;54.270;12.470;2023-03-01T08:59:54;179.03;;;58.10;;
19235;SDS011;9752;54.270;12.470;2023-03-01T09:04:56;277.17;;;71.47;;
19235;SDS011;9752;54.270;12.470;2023-03-01T09:09:58;122.90;;;42.80;;
19235;SDS011;9752;54.270;12.470;2023-03-01T09:15:01;287.57;;;75.20;;
19235;SDS011;9752;54.270;12.470;2023-03-01T09:20:03;184.87;;;55.63;;
19235;SDS011;9752;54.270;12.470;2023-03-01T09:25:06;433.80;;;104.43;;
19235;SDS011;9752;54.270;12.470;2023-03-01T09:30:10;326.67;;;87.30;;
19235;SDS011;9752;54.270;12.470;2023-03-01T09:35:13;224.53;;;57.90;;
19235;SDS011;9752;54.270;12.470;2023-03-01T09:40:15;125.50;;;49.03;;
19235;SDS011;9752;54.270;12.470;2023-03-01T09:45:25;135.13;;;54.93;;
19235;SDS011;9752;54.270;12.470;2023-03-01T09:50:32;127.97;;;50.53;;
19235;SDS011;9752;54.270;12.470;2023-03-01T09:55:37;136.97;;;53.80;;
19235;SDS011;9752;54.270;12.470;2023-03-01T10:00:46;151.27;;;51.83;;
19235;SDS011;9752;54.270;12.470;2023-03-01T10:05:52;196.50;;;55.97;;
19235;SDS011;9752;54.270;12.470;2023-03-01T10:11:00;126.60;;;52.87;;
19235;SDS011;9752;54.270;12.470;2023-03-01T10:16:05;119.73;;;55.67;;
19235;SDS011;9752;54.270;12.470;2023-03-01T10:21:15;185.80;;;64.37;;
19235;SDS011;9752;54.270;12.470;2023-03-01T10:26:27;106.37;;;47.93;;
19235;SDS011;9752;54.270;12.470;2023-03-01T10:31:41;105.57;;;42.17;;
19235;SDS011;9752;54.270;12.470;2023-03-01T10:36:47;93.80;;;43.63;;
19235;SDS011;9752;54.270;12.470;2023-03-01T10:41:55;86.97;;;41.93;;
19235;SDS011;9752;54.270;12.470;2023-03-01T10:47:02;111.17;;;50.97;;
19235;SDS011;9752;54.270;12.470;2023-03-01T10:52:11;77.43;;;41.27;;
19235;SDS011;9752;54.270;12.470;2023-03-01T10:57:27;77.03;;;39.93;;
19235;SDS011;9752;54.270;12.470;2023-03-01T11:02:32;80.50;;;37.70;;
19235;SDS011;9752;54.270;12.470;2023-03-01T11:07:44;85.37;;;42.13;;
19235;SDS011;9752;54.270;12.470;2023-03-01T11:12:48;60.83;;;34.43;;
19235;SDS011;9752;54.270;12.470;2023-03-01T11:17:53;94.47;;;41.60;;
19235;SDS011;9752;54.270;12.470;2023-03-01T11:22:56;90.63;;;44.57;;
19235;SDS011;9752;54.270;12.470;2023-03-01T11:28:03;89.40;;;40.30;;
19235;SDS011;9752;54.270;12.470;2023-03-01T11:33:13;78.30;;;38.10;;
19235;SDS011;9752;54.270;12.470;2023-03-01T11:38:21;84.57;;;40.83;;
19235;SDS011;9752;54.270;12.470;2023-03-01T11:43:29;78.40;;;39.23;;
19235;SDS011;9752;54.270;12.470;2023-03-01T11:48:41;72.03;;;37.80;;
19235;SDS011;9752;54.270;12.470;2023-03-01T11:53:57;90.83;;;43.97;;
19235;SDS011;9752;54.270;12.470;2023-03-01T11:59:17;72.97;;;38.97;;
19235;SDS011;9752;54.270;12.470;2023-03-01T12:04:42;66.83;;;35.90;;
19235;SDS011;9752;54.270;12.470;2023-03-01T12:10:14;64.87;;;35.80;;
19235;SDS011;9752;54.270;12.470;2023-03-01T12:15:37;67.77;;;37.40;;
19235;SDS011;9752;54.270;12.470;2023-03-01T12:21:01;70.47;;;37.77;;
19235;SDS011;9752;54.270;12.470;2023-03-01T12:26:16;61.43;;;34.77;;
19235;SDS011;9752;54.270;12.470;2023-03-01T12:37:21;68.87;;;37.63;;
19235;SDS011;9752;54.270;12.470;2023-03-01T12:42:30;70.00;;;37.73;;
19235;SDS011;9752;54.270;12.470;2023-03-01T12:47:48;78.40;;;41.23;;
19235;SDS011;9752;54.270;12.470;2023-03-01T12:52:59;70.87;;;37.90;;
19235;SDS011;9752;54.270;12.470;2023-03-01T12:58:03;78.60;;;41.23;;
19235;SDS011;9752;54.270;12.470;2023-03-01T13:03:17;79.73;;;39.30;;
19235;SDS011;9752;54.270;12.470;2023-03-01T13:08:29;79.53;;;44.97;;
19235;SDS011;9752;54.270;12.470;2023-03-01T13:13:36;88.73;;;45.90;;
19235;SDS011;9752;54.270;12.470;2023-03-01T13:18:38;96.47;;;47.20;;
19235;SDS011;9752;54.270;12.470;2023-03-01T13:23:41;85.20;;;45.67;;
19235;SDS011;9752;54.270;12.470;2023-03-01T13:28:56;83.17;;;44.23;;
19235;SDS011;9752;54.270;12.470;2023-03-01T13:34:00;79.33;;;42.73;;
19235;SDS011;9752;54.270;12.470;2023-03-01T13:39:25;84.93;;;46.23;;
19235;SDS011;9752;54.270;12.470;2023-03-01T13:44:32;75.83;;;42.10;;
19235;SDS011;9752;54.270;12.470;2023-03-01T13:49:42;92.80;;;49.60;;
19235;SDS011;9752;54.270;12.470;2023-03-01T13:54:49;87.27;;;47.63;;
19235;SDS011;9752;54.270;12.470;2023-03-01T13:59:51;93.00;;;49.07;;
19235;SDS011;9752;54.270;12.470;2023-03-01T14:04:56;81.83;;;45.07;;
19235;SDS011;9752;54.270;12.470;2023-03-01T14:10:01;86.27;;;49.37;;
19235;SDS011;9752;54.270;12.470;2023-03-01T14:15:06;91.40;;;49.17;;
19235;SDS011;9752;54.270;12.470;2023-03-01T14:20:18;80.27;;;45.60;;
19235;SDS011;9752;54.270;12.470;2023-03-01T14:25:27;82.60;;;43.70;;
19235;SDS011;9752;54.270;12.470;2023-03-01T14:30:31;85.97;;;45.83;;
19235;SDS011;9752;54.270;12.470;2023-03-01T14:35:36;84.03;;;45.17;;
19235;SDS011;9752;54.270;12.470;2023-03-01T14:40:40;88.93;;;45.97;;
19235;SDS011;9752;54.270;12.470;2023-03-01T14:45:46;98.37;;;46.57;;
19235;SDS011;9752;54.270;12.470;2023-03-01T14:50:49;99.17;;;48.83;;
19235;SDS011;9752;54.270;12.470;2023-03-01T14:55:54;102.47;;;48.13;;
19235;SDS011;9752;54.270;12.470;2023-03-01T15:00:58;154.47;;;58.20;;
19235;SDS011;9752;54.270;12.470;2023-03-01T15:06:02;106.00;;;42.93;;
19235;SDS011;9752;54.270;12.470;2023-03-01T15:11:17;141.90;;;55.40;;
19235;SDS011;9752;54.270;12.470;2023-03-01T15:16:23;143.13;;;50.57;;
19235;SDS011;9752;54.270;12.470;2023-03-01T15:21:27;84.47;;;37.47;;
19235;SDS011;9752;54.270;12.470;2023-03-01T15:26:35;134.70;;;51.60;;
19235;SDS011;9752;54.270;12.470;2023-03-01T15:31:40;87.43;;;39.70;;
19235;SDS011;9752;54.270;12.470;2023-03-01T15:36:43;73.70;;;35.47;;
19235;SDS011;9752;54.270;12.470;2023-03-01T15:41:47;103.33;;;43.07;;
19235;SDS011;9752;54.270;12.470;2023-03-01T15:46:49;79.50;;;39.50;;
19235;SDS011;9752;54.270;12.470;2023-03-01T15:51:51;81.17;;;38.20;;
19235;SDS011;9752;54.270;12.470;2023-03-01T15:56:57;79.90;;;36.60;;
19235;SDS011;9752;54.270;12.470;2023-03-01T16:01:58;95.10;;;40.53;;
19235;SDS011;9752;54.270;12.470;2023-03-01T16:07:00;102.10;;;44.33;;
19235;SDS011;9752;54.270;12.470;2023-03-01T16:12:05;88.27;;;40.80;;
19235;SDS011;9752;54.270;12.470;2023-03-01T16:17:10;86.07;;;38.63;;
19235;SDS011;9752;54.270;12.470;2023-03-01T16:22:12;117.67;;;46.13;;
19235;SDS011;9752;54.270;12.470;2023-03-01T16:27:15;144.27;;;48.53;;
19235;SDS011;9752;54.270;12.470;2023-03-01T16:32:16;126.23;;;47.20;;
19235;SDS011;9752;54.270;12.470;2023-03-01T16:37:18;169.67;;;51.87;;
19235;SDS011;9752;54.270;12.470;2023-03-01T16:42:23;242.47;;;59.90;;
19235;SDS011;9752;54.270;12.470;2023-03-01T16:47:25;323.73;;;70.80;;
19235;SDS011;9752;54.270;12.470;2023-03-01T16:52:27;190.03;;;54.70;;
19235;SDS011;9752;54.270;12.470;2023-03-01T16:57:30;227.83;;;66.00;;
19235;SDS011;9752;54.270;12.470;2023-03-01T17:02:31;312.50;;;75.87;;
19235;SDS011;9752;54.270;12.470;2023-03-01T17:07:33;213.80;;;59.37;;
19235;SDS011;9752;54.270;12.470;2023-03-01T17:12:37;85.60;;;36.87;;
19235;SDS011;9752;54.270;12.470;2023-03-01T17:17:39;327.37;;;68.50;;
19235;SDS011;9752;54.270;12.470;2023-03-01T17:22:41;178.43;;;53.13;;
19235;SDS011;9752;54.270;12.470;2023-03-01T17:27:44;329.53;;;69.77;;
19235;SDS011;9752;54.270;12.470;2023-03-01T17:32:46;410.33;;;77.70;;
19235;SDS011;9752;54.270;12.470;2023-03-01T17:37:48;347.17;;;68.10;;
19235;SDS011;9752;54.270;12.470;2023-03-01T17:42:51;136.17;;;40.90;;
19235;SDS011;9752;54.270;12.470;2023-03-01T17:47:53;271.17;;;60.90;;
19235;SDS011;9752;54.270;12.470;2023-03-01T17:52:54;432.60;;;76.27;;
19235;SDS011;9752;54.270;12.470;2023-03-01T17:57:58;554.27;;;108.57;;
19235;SDS011;9752;54.270;12.470;2023-03-01T18:03:00;413.60;;;81.43;;
19235;SDS011;9752;54.270;12.470;2023-03-01T18:08:02;285.27;;;64.87;;
19235;SDS011;9752;54.270;12.470;2023-03-01T18:13:05;208.07;;;54.97;;
19235;SDS011;9752;54.270;12.470;2023-03-01T18:18:07;130.20;;;39.87;;
19235;SDS011;9752;54.270;12.470;2023-03-01T18:23:09;482.80;;;96.60;;
19235;SDS011;9752;54.270;12.470;2023-03-01T18:28:12;304.27;;;67.03;;
19235;SDS011;9752;54.270;12.470;2023-03-01T18:33:14;145.00;;;40.40;;
19235;SDS011;9752;54.270;12.470;2023-03-01T18:38:15;281.50;;;67.23;;
19235;SDS011;9752;54.270;12.470;2023-03-01T18:43:19;432.73;;;85.40;;
19235;SDS011;9752;54.270;12.470;2023-03-01T18:48:20;197.60;;;52.60;;
19235;SDS011;9752;54.270;12.470;2023-03-01T18:53:22;259.17;;;58.87;;
19235;SDS011;9752;54.270;12.470;2023-03-01T18:58:25;402.23;;;85.43;;
19235;SDS011;9752;54.270;12.470;2023-03-01T19:03:27;380.07;;;80.27;;
19235;SDS011;9752;54.270;12.470;2023-03-01T19:08:29;249.50;;;63.20;;
19235;SDS011;9752;54.270;12.470;2023-03-01T19:13:33;183.70;;;53.43;;
19235;SDS011;9752;54.270;12.470;2023-03-01T19:18:37;424.30;;;85.30;;
19235;SDS011;9752;54.270;12.470;2023-03-01T19:23:40;412.87;;;86.93;;
19235;SDS011;9752;54.270;12.470;2023-03-01T19:28:43;459.83;;;98.00;;
19235;SDS011;9752;54.270;12.470;2023-03-01T19:33:45;269.57;;;63.47;;
19235;SDS011;9752;54.270;12.470;2023-03-01T19:38:47;304.33;;;74.50;;
19235;SDS011;9752;54.270;12.470;2023-03-01T19:43:50;450.00;;;96.50;;
19235;SDS011;9752;54.270;12.470;2023-03-01T19:48:52;445.77;;;94.73;;
19235;SDS011;9752;54.270;12.470;2023-03-01T19:53:54;481.13;;;97.33;;
19235;SDS011;9752;54.270;12.470;2023-03-01T19:58:57;284.27;;;68.43;;
19235;SDS011;9752;54.270;12.470;2023-03-01T20:04:03;519.00;;;109.97;;
19235;SDS011;9752;54.270;12.470;2023-03-01T20:09:05;351.30;;;77.57;;
19235;SDS011;9752;54.270;12.470;2023-03-01T20:14:10;327.27;;;77.63;;
19235;SDS011;9752;54.270;12.470;2023-03-01T20:19:11;277.27;;;70.57;;
19235;SDS011;9752;54.270;12.470;2023-03-01T20:24:14;162.57;;;48.37;;
19235;SDS011;9752;54.270;12.470;2023-03-01T20:29:17;273.47;;;68.80;;
19235;SDS011;9752;54.270;12.470;2023-03-01T20:34:19;310.23;;;74.13;;
19235;SDS011;9752;54.270;12.470;2023-03-01T20:39:21;220.90;;;57.93;;
19235;SDS011;9752;54.270;12.470;2023-03-01T20:44:29;195.07;;;57.13;;
19235;SDS011;9752;54.270;12.470;2023-03-01T20:49:30;556.73;;;117.77;;
19235;SDS011;9752;54.270;12.470;2023-03-01T20:54:32;505.30;;;110.67;;
19235;SDS011;9752;54.270;12.470;2023-03-01T20:59:35;317.40;;;70.43;;
19235;SDS011;9752;54.270;12.470;2023-03-01T21:04:37;299.50;;;66.57;;
19235;SDS011;9752;54.270;12.470;2023-03-01T21:09:39;283.33;;;64.83;;
19235;SDS011;9752;54.270;12.470;2023-03-01T21:14:45;231.43;;;55.10;;
19235;SDS011;9752;54.270;12.470;2023-03-01T21:19:46;310.90;;;71.00;;
19235;SDS011;9752;54.270;12.470;2023-03-01T21:24:49;560.27;;;109.13;;
19235;SDS011;9752;54.270;12.470;2023-03-01T21:29:53;406.57;;;78.03;;
19235;SDS011;9752;54.270;12.470;2023-03-01T21:34:55;491.23;;;94.07;;
19235;SDS011;9752;54.270;12.470;2023-03-01T21:39:58;262.03;;;55.57;;
19235;SDS011;9752;54.270;12.470;2023-03-01T21:45:01;346.67;;;68.63;;
19235;SDS011;9752;54.270;12.470;2023-03-01T21:50:03;438.93;;;81.27;;
19235;SDS011;9752;54.270;12.470;2023-03-01T21:55:08;534.13;;;102.33;;
19235;SDS011;9752;54.270;12.470;2023-03-01T22:00:13;235.00;;;57.77;;
19235;SDS011;9752;54.270;12.470;2023-03-01T22:05:17;562.47;;;94.73;;
19235;SDS011;9752;54.270;12.470;2023-03-01T22:10:18;520.17;;;87.50;;
19235;SDS011;9752;54.270;12.470;2023-03-01T22:15:28;487.73;;;82.90;;
19235;SDS011;9752;54.270;12.470;2023-03-01T22:20:30;379.67;;;65.30;;
19235;SDS011;9752;54.270;12.470;2023-03-01T22:25:31;295.87;;;52.87;;
19235;SDS011;9752;54.270;12.470;2023-03-01T22:30:35;500.67;;;78.70;;
19235;SDS011;9752;54.270;12.470;2023-03-01T22:35:39;467.83;;;83.93;;
19235;SDS011;9752;54.270;12.470;2023-03-01T22:40:41;538.47;;;93.00;;
19235;SDS011;9752;54.270;12.470;2023-03-01T22:45:44;208.17;;;50.57;;
19235;SDS011;9752;54.270;12.470;2023-03-01T22:50:46;393.13;;;71.20;;
19235;SDS011;9752;54.270;12.470;2023-03-01T22:55:49;433.87;;;80.17;;
19235;SDS011;9752;54.270;12.470;2023-03-01T23:00:52;369.20;;;68.10;;
19235;SDS011;9752;54.270;12.470;2023-03-01T23:05:54;343.30;;;64.47;;
19235;SDS011;9752;54.270;12.470;2023-03-01T23:10:55;320.60;;;57.57;;
19235;SDS011;9752;54.270;12.470;2023-03-01T23:15:58;416.07;;;67.73;;
19235;SDS011;9752;54.270;12.470;2023-03-01T23:21:05;250.50;;;46.17;;
19235;SDS011;9752;54.270;12.470;2023-03-01T23:26:08;443.60;;;72.93;;
19235;SDS011;9752;54.270;12.470;2023-03-01T23:31:12;391.50;;;70.17;;
19235;SDS011;9752;54.270;12.470;2023-03-01T23:36:16;259.37;;;50.17;;
19235;SDS011;9752;54.270;12.470;2023-03-01T23:41:19;339.63;;;57.87;;
19235;SDS011;9752;54.270;12.470;2023-03-01T23:46:25;370.40;;;65.70;;
19235;SDS011;9752;54.270;12.470;2023-03-01T23:51:28;542.50;;;87.53;;
19235;SDS011;9752;54.270;12.470;2023-03-01T23:56:31;668.27;;;120.70;;
